createdAt,value
2018-09-11T00:00:20.232Z,6.27
2018-09-11T00:04:24.035Z,4.70
2018-09-11T00:08:27.681Z,5.97
2018-09-11T00:12:31.295Z,6.93
2018-09-11T00:16:34.957Z,7.60
2018-09-11T00:20:38.621Z,4.57
2018-09-11T00:24:42.280Z,5.73
2018-09-11T00:28:45.958Z,4.30
2018-09-11T00:32:49.580Z,6.40
2018-09-11T00:36:53.355Z,3.40
2018-09-11T00:40:57.015Z,5.37
2018-09-11T00:45:00.680Z,6.03
2018-09-11T00:49:04.356Z,6.97
2018-09-11T00:53:07.984Z,8.60
2018-09-11T00:57:11.625Z,6.40
2018-09-11T01:01:15.267Z,10.53
2018-09-11T01:05:18.928Z,11.00
2018-09-11T01:09:23.508Z,5.83
2018-09-11T01:13:27.133Z,9.47
2018-09-11T01:17:30.769Z,7.40
2018-09-11T01:21:34.521Z,8.03
2018-09-11T01:25:38.180Z,5.23
2018-09-11T01:29:41.926Z,10.80
2018-09-11T01:33:45.575Z,6.33
2018-09-11T01:37:49.192Z,6.97
2018-09-11T01:41:52.872Z,9.43
2018-09-11T01:45:56.536Z,7.53
2018-09-11T01:50:00.186Z,7.17
2018-09-11T01:54:03.916Z,11.93
2018-09-11T01:58:07.583Z,7.10
2018-09-11T02:02:11.275Z,8.17
2018-09-11T02:06:14.953Z,6.83
2018-09-11T02:10:18.603Z,5.50
2018-09-11T02:14:22.268Z,10.30
2018-09-11T02:18:25.893Z,8.30
2018-09-11T02:22:29.544Z,6.97
2018-09-11T02:26:33.196Z,7.37
2018-09-11T02:30:36.876Z,9.00
2018-09-11T02:34:40.524Z,10.10
2018-09-11T02:38:44.225Z,11.37
2018-09-11T02:42:47.915Z,7.50
2018-09-11T02:46:51.576Z,10.20
2018-09-11T02:50:55.241Z,9.83
2018-09-11T02:54:58.975Z,9.40
2018-09-11T02:59:02.688Z,9.97
2018-09-11T03:03:06.375Z,9.40
2018-09-11T03:07:10.045Z,12.23
2018-09-11T03:11:13.703Z,7.00
2018-09-11T03:15:17.377Z,9.30
2018-09-11T03:19:21.041Z,9.63
2018-09-11T03:23:24.763Z,10.10
2018-09-11T03:27:28.426Z,13.10
2018-09-11T03:31:32.124Z,12.67
2018-09-11T03:35:35.840Z,12.37
2018-09-11T03:39:39.610Z,9.17
2018-09-11T03:43:43.287Z,6.77
2018-09-11T03:47:46.939Z,9.63
2018-09-11T03:51:50.584Z,13.60
2018-09-11T03:55:54.249Z,9.87
2018-09-11T03:59:57.898Z,9.90
2018-09-11T04:04:01.967Z,11.27
2018-09-11T04:08:05.679Z,11.00
2018-09-11T04:12:09.359Z,11.10
2018-09-11T04:16:13.012Z,12.87
2018-09-11T04:20:16.800Z,11.67
2018-09-11T04:24:20.429Z,14.20
2018-09-11T04:28:24.147Z,9.00
2018-09-11T04:32:27.815Z,14.67
2018-09-11T04:36:31.606Z,13.50
2018-09-11T04:40:35.178Z,18.17
2018-09-11T04:44:38.841Z,14.83
2018-09-11T04:48:44.208Z,13.53
2018-09-11T04:52:47.889Z,14.37
2018-09-11T04:56:51.547Z,10.77
2018-09-11T05:00:55.204Z,15.57
2018-09-11T05:04:58.835Z,15.07
2018-09-11T05:09:02.516Z,9.23
2018-09-11T05:13:06.260Z,13.37
2018-09-11T05:17:09.934Z,9.60
2018-09-11T05:21:13.591Z,12.83
2018-09-11T05:25:17.205Z,13.50
2018-09-11T05:29:20.875Z,9.07
2018-09-11T05:33:24.532Z,9.07
2018-09-11T05:37:28.163Z,12.80
2018-09-11T05:41:31.829Z,7.23
2018-09-11T05:45:35.461Z,7.80
2018-09-11T05:49:39.113Z,8.07
2018-09-11T05:53:42.806Z,7.50
2018-09-11T05:57:46.491Z,9.93
2018-09-11T06:01:50.220Z,10.80
2018-09-11T06:05:53.847Z,9.70
2018-09-11T06:09:57.564Z,8.73
2018-09-11T06:14:01.220Z,7.00
2018-09-11T06:18:04.906Z,8.63
2018-09-11T06:22:08.871Z,10.90
2018-09-11T06:26:12.548Z,6.87
2018-09-11T06:30:16.336Z,10.13
2018-09-11T06:34:19.984Z,8.73
2018-09-11T06:38:23.644Z,8.77
2018-09-11T06:42:27.312Z,7.40
2018-09-11T06:46:31.084Z,7.27
2018-09-11T06:50:34.727Z,5.47
2018-09-11T06:54:38.500Z,10.20
2018-09-11T06:58:42.290Z,10.53
2018-09-11T07:02:45.940Z,6.40
2018-09-11T07:06:49.608Z,11.40
2018-09-11T07:10:53.242Z,7.37
2018-09-11T07:14:56.930Z,6.73
2018-09-11T07:19:00.599Z,11.67
2018-09-11T07:23:04.364Z,10.77
2018-09-11T07:27:08.031Z,8.87
2018-09-11T07:31:11.764Z,7.67
2018-09-11T07:35:15.405Z,9.73
2018-09-11T07:39:19.184Z,13.57
2018-09-11T07:43:22.869Z,9.43
2018-09-11T07:47:26.530Z,14.80
2018-09-11T07:51:30.159Z,9.27
2018-09-11T07:55:33.831Z,11.40
2018-09-11T07:59:37.503Z,10.93
2018-09-11T08:03:41.177Z,15.07
2018-09-11T08:07:44.972Z,13.73
2018-09-11T08:11:48.643Z,11.97
2018-09-11T08:15:52.318Z,8.37
2018-09-11T08:19:56.242Z,9.60
2018-09-11T08:23:59.881Z,6.57
2018-09-11T08:28:03.574Z,9.00
2018-09-11T08:32:07.252Z,10.37
2018-09-11T08:36:11.020Z,7.97
2018-09-11T08:40:14.691Z,8.80
2018-09-11T08:44:18.360Z,13.83
2018-09-11T08:48:22.033Z,7.13
2018-09-11T08:52:25.738Z,8.07
2018-09-11T08:56:29.404Z,8.07
2018-09-11T09:00:33.081Z,10.03
2018-09-11T09:04:36.749Z,13.40
2018-09-11T09:08:40.430Z,7.93
2018-09-11T09:12:44.064Z,5.43
2018-09-11T09:16:47.829Z,8.60
2018-09-11T09:20:51.537Z,6.10
2018-09-11T09:24:55.206Z,11.73
2018-09-11T09:28:58.896Z,11.27
2018-09-11T09:33:02.537Z,8.20
2018-09-11T09:37:06.383Z,5.73
2018-09-11T09:41:10.052Z,4.37
2018-09-11T09:45:13.712Z,4.07
2018-09-11T09:49:17.392Z,7.50
2018-09-11T09:53:21.024Z,6.50
2018-09-11T09:57:24.683Z,7.70
2018-09-11T10:01:33.657Z,4.97
2018-09-11T10:05:37.349Z,4.97
2018-09-11T10:09:41.017Z,9.47
2018-09-11T10:13:44.653Z,7.87
2018-09-11T10:17:48.352Z,7.67
2018-09-11T10:21:52.157Z,4.27
2018-09-11T10:25:55.850Z,6.60
2018-09-11T10:29:59.565Z,4.50
2018-09-11T10:34:03.200Z,7.93
2018-09-11T10:38:06.881Z,5.60
2018-09-11T10:42:10.531Z,5.40
2018-09-11T10:46:14.285Z,4.00
2018-09-11T10:50:17.912Z,3.00
2018-09-11T10:54:21.567Z,5.77
2018-09-11T10:58:25.234Z,5.83
2018-09-11T11:02:28.926Z,9.53
2018-09-11T11:06:32.605Z,4.63
2018-09-11T11:10:36.305Z,4.97
2018-09-11T11:14:39.987Z,8.03
2018-09-11T11:18:43.671Z,7.43
2018-09-11T11:22:47.351Z,7.33
2018-09-11T11:26:51.112Z,3.23
2018-09-11T11:30:54.753Z,5.07
2018-09-11T11:34:58.419Z,3.97
2018-09-11T11:39:02.098Z,5.73
2018-09-11T11:43:05.958Z,3.53
2018-09-11T11:47:09.613Z,3.87
2018-09-11T11:51:13.320Z,4.30
2018-09-11T11:55:16.982Z,1.40
2018-09-11T11:59:20.662Z,4.57
2018-09-11T12:03:24.348Z,4.00
2018-09-11T12:07:28.008Z,7.03
2018-09-11T12:11:31.696Z,4.47
2018-09-11T12:15:35.348Z,3.33
2018-09-11T12:19:39.131Z,3.87
2018-09-11T12:23:42.848Z,2.77
2018-09-11T12:27:46.487Z,5.40
2018-09-11T12:31:50.216Z,2.13
2018-09-11T12:35:53.964Z,4.40
2018-09-11T12:39:57.684Z,2.70
2018-09-11T12:44:01.329Z,4.43
2018-09-11T12:48:05.456Z,2.27
2018-09-11T12:52:08.778Z,3.53
2018-09-11T12:56:12.450Z,3.57
2018-09-11T13:00:16.127Z,3.97
2018-09-11T13:04:19.805Z,2.40
2018-09-11T13:08:23.529Z,6.03
2018-09-11T13:12:27.247Z,6.50
2018-09-11T13:16:30.934Z,2.00
2018-09-11T13:20:34.621Z,4.60
2018-09-11T13:24:38.342Z,2.93
2018-09-11T13:28:42.041Z,3.63
2018-09-11T13:32:45.761Z,3.20
2018-09-11T13:36:49.432Z,3.30
2018-09-11T13:40:53.090Z,5.10
2018-09-11T13:44:56.715Z,2.57
2018-09-11T13:49:00.376Z,2.03
2018-09-11T13:53:04.054Z,2.80
2018-09-11T13:57:07.751Z,3.90
2018-09-11T14:01:11.397Z,5.80
2018-09-11T14:05:15.024Z,3.97
2018-09-11T14:09:18.764Z,3.00
2018-09-11T14:13:22.436Z,2.83
2018-09-11T14:17:26.129Z,2.53
2018-09-11T14:21:29.806Z,3.57
2018-09-11T14:25:33.429Z,2.97
2018-09-11T14:29:37.244Z,1.90
2018-09-11T14:33:40.896Z,5.77
2018-09-11T14:37:44.588Z,7.10
2018-09-11T14:41:48.262Z,1.73
2018-09-11T14:45:51.907Z,5.30
2018-09-11T14:49:55.595Z,4.70
2018-09-11T14:53:59.293Z,4.40
2018-09-11T14:58:02.966Z,3.10
2018-09-11T15:02:06.688Z,2.57
2018-09-11T15:06:10.316Z,3.93
2018-09-11T15:10:14.016Z,3.60
2018-09-11T15:14:17.681Z,2.20
2018-09-11T15:18:21.373Z,2.17
2018-09-11T15:22:25.041Z,3.50
2018-09-11T15:26:28.759Z,6.50
2018-09-11T15:30:32.476Z,7.67
2018-09-11T15:34:36.152Z,8.90
2018-09-11T15:38:39.908Z,5.03
2018-09-11T15:42:43.604Z,7.77
2018-09-11T15:46:47.322Z,1.63
2018-09-11T15:50:51.104Z,2.47
2018-09-11T15:54:54.761Z,5.50
2018-09-11T15:58:58.437Z,6.80
2018-09-11T16:03:02.114Z,2.33
2018-09-11T16:07:05.860Z,5.10
2018-09-11T16:11:09.582Z,2.60
2018-09-11T16:15:13.669Z,4.37
2018-09-11T16:19:17.335Z,2.37
2018-09-11T16:23:20.998Z,3.73
2018-09-11T16:27:24.624Z,7.37
2018-09-11T16:31:28.753Z,8.70
2018-09-11T16:35:32.429Z,6.77
2018-09-11T16:39:36.118Z,2.40
2018-09-11T16:43:39.774Z,3.60
2018-09-11T16:47:43.397Z,6.00
2018-09-11T16:51:47.068Z,2.77
2018-09-11T16:55:50.760Z,5.20
2018-09-11T16:59:54.428Z,6.00
2018-09-11T17:03:58.091Z,8.13
2018-09-11T17:08:01.786Z,7.97
2018-09-11T17:12:05.551Z,6.93
2018-09-11T17:16:09.661Z,5.70
2018-09-11T17:20:13.443Z,2.43
2018-09-11T17:24:17.144Z,10.63
2018-09-11T17:28:20.765Z,3.00
2018-09-11T17:32:24.483Z,5.63
2018-09-11T17:36:28.152Z,7.60
2018-09-11T17:40:31.821Z,3.20
2018-09-11T17:44:35.505Z,5.73
2018-09-11T17:48:39.315Z,11.03
2018-09-11T17:52:43.041Z,3.43
2018-09-11T17:56:46.688Z,2.70
2018-09-11T18:00:50.470Z,3.13
2018-09-11T18:04:54.129Z,8.90
2018-09-11T18:08:57.993Z,6.50
2018-09-11T18:13:01.628Z,7.83
2018-09-11T18:17:05.412Z,5.90
2018-09-11T18:21:09.096Z,3.40
2018-09-11T18:25:12.800Z,12.77
2018-09-11T18:29:16.509Z,8.17
2018-09-11T18:33:20.192Z,5.70
2018-09-11T18:37:23.913Z,3.93
2018-09-11T18:41:27.540Z,4.17
2018-09-11T18:45:31.185Z,6.00
2018-09-11T18:49:34.894Z,3.00
2018-09-11T18:53:38.561Z,6.07
2018-09-11T18:57:42.355Z,3.73
2018-09-11T19:01:45.940Z,5.73
2018-09-11T19:05:49.628Z,4.10
2018-09-11T19:09:53.297Z,7.47
2018-09-11T19:13:56.974Z,5.57
2018-09-11T19:18:00.621Z,4.77
2018-09-11T19:22:04.306Z,3.27
2018-09-11T19:26:07.978Z,4.53
2018-09-11T19:30:12.205Z,5.93
2018-09-11T19:34:15.988Z,3.73
2018-09-11T19:38:19.559Z,5.47
2018-09-11T19:42:23.368Z,6.00
2018-09-11T19:46:26.925Z,4.27
2018-09-11T19:50:30.595Z,6.23
2018-09-11T19:54:34.277Z,2.17
2018-09-11T19:58:37.979Z,5.00
2018-09-11T20:02:41.657Z,5.93
2018-09-11T20:06:45.333Z,2.40
2018-09-11T20:10:49.046Z,4.27
2018-09-11T20:14:52.703Z,4.10
2018-09-11T20:18:56.425Z,6.67
2018-09-11T20:23:00.076Z,5.90
2018-09-11T20:27:03.789Z,6.70
2018-09-11T20:31:07.496Z,5.60
2018-09-11T20:35:11.199Z,7.13
2018-09-11T20:39:15.266Z,6.80
2018-09-11T20:43:18.924Z,4.60
2018-09-11T20:47:22.625Z,5.23
2018-09-11T20:51:26.249Z,3.90
2018-09-11T20:55:29.914Z,4.50
2018-09-11T20:59:33.608Z,2.13
